sensor_id;sensor_type;location;lat;lon;timestamp;pressure;altitude;pressure_sealevel;temperature;humidity
13954;BME280;7049;49.444;8.522;2022-07-29T00:03:54;76234.44;;;-3.47;37.54
13954;BME280;7049;49.444;8.522;2022-07-29T00:08:56;76236.53;;;-3.47;38.51
13954;BME280;7049;49.444;8.522;2022-07-29T00:13:57;76244.91;;;-3.47;38.98
13954;BME280;7049;49.444;8.522;2022-07-29T00:19:01;76255.34;;;-3.47;39.42
13954;BME280;7049;49.444;8.522;2022-07-29T00:24:02;76261.63;;;-3.47;40.16
13954;BME280;7049;49.444;8.522;2022-07-29T00:29:04;76265.81;;;-3.47;40.67
13954;BME280;7049;49.444;8.522;2022-07-29T00:34:07;76272.09;;;-3.47;41.17
13954;BME280;7049;49.444;8.522;2022-07-29T00:39:29;76286.72;;;-3.47;42.12
13954;BME280;7049;49.444;8.522;2022-07-29T00:44:30;76299.28;;;-3.47;42.41
13954;BME280;7049;49.444;8.522;2022-07-29T00:49:38;76303.47;;;-3.47;42.77
13954;BME280;7049;49.444;8.522;2022-07-29T00:54:40;76311.81;;;-3.47;43.04
13954;BME280;7049;49.444;8.522;2022-07-29T00:59:42;76316.00;;;-3.47;43.69
13954;BME280;7049;49.444;8.522;2022-07-29T01:04:44;76320.19;;;-3.47;43.88
13954;BME280;7049;49.444;8.522;2022-07-29T01:09:46;76328.56;;;-3.47;44.47
13954;BME280;7049;49.444;8.522;2022-07-29T01:14:49;76332.75;;;-3.47;44.73
13954;BME280;7049;49.444;8.522;2022-07-29T01:19:58;76334.84;;;-3.47;45.49
13954;BME280;7049;49.444;8.522;2022-07-29T01:25:17;76332.75;;;-3.47;46.58
13954;BME280;7049;49.444;8.522;2022-07-29T01:30:22;76336.91;;;-3.47;47.40
13954;BME280;7049;49.444;8.522;2022-07-29T01:35:28;76343.19;;;-3.47;47.86
13954;BME280;7049;49.444;8.522;2022-07-29T01:40:35;76349.47;;;-3.47;48.11
13954;BME280;7049;49.444;8.522;2022-07-29T01:45:45;76353.66;;;-3.47;48.63
13954;BME280;7049;49.444;8.522;2022-07-29T01:50:50;76357.84;;;-3.47;48.60
13954;BME280;7049;49.444;8.522;2022-07-29T01:55:55;76364.13;;;-3.47;48.96
13954;BME280;7049;49.444;8.522;2022-07-29T02:00:59;76372.47;;;-3.47;48.98
13954;BME280;7049;49.444;8.522;2022-07-29T02:06:04;76374.56;;;-3.47;48.57
13954;BME280;7049;49.444;8.522;2022-07-29T02:11:07;76370.38;;;-3.47;47.63
13954;BME280;7049;49.444;8.522;2022-07-29T02:16:11;76378.75;;;-3.47;47.48
13954;BME280;7049;49.444;8.522;2022-07-29T02:21:15;76380.84;;;-3.47;46.61
13954;BME280;7049;49.444;8.522;2022-07-29T02:26:23;76395.47;;;-3.47;46.27
13954;BME280;7049;49.444;8.522;2022-07-29T02:31:30;76408.03;;;-3.47;46.37
13954;BME280;7049;49.444;8.522;2022-07-29T02:36:34;76416.41;;;-3.47;45.92
13954;BME280;7049;49.444;8.522;2022-07-29T02:41:40;76428.94;;;-3.47;45.26
13954;BME280;7049;49.444;8.522;2022-07-29T02:46:47;76431.03;;;-3.47;45.69
13954;BME280;7049;49.444;8.522;2022-07-29T02:51:54;76435.22;;;-3.47;45.92
13954;BME280;7049;49.444;8.522;2022-07-29T02:56:58;76454.06;;;-3.47;45.51
13954;BME280;7049;49.444;8.522;2022-07-29T03:02:04;76460.31;;;-3.47;45.90
13954;BME280;7049;49.444;8.522;2022-07-29T03:07:08;76466.59;;;-3.47;46.41
13954;BME280;7049;49.444;8.522;2022-07-29T03:12:10;76474.97;;;-3.47;46.78
13954;BME280;7049;49.444;8.522;2022-07-29T03:17:14;76483.34;;;-3.47;46.76
13954;BME280;7049;49.444;8.522;2022-07-29T03:22:17;76491.69;;;-3.47;47.06
13954;BME280;7049;49.444;8.522;2022-07-29T03:27:19;76493.78;;;-3.47;47.02
13954;BME280;7049;49.444;8.522;2022-07-29T03:32:22;76506.34;;;-3.47;47.19
13954;BME280;7049;49.444;8.522;2022-07-29T03:37:23;76512.63;;;-3.47;47.40
13954;BME280;7049;49.444;8.522;2022-07-29T03:42:30;76518.91;;;-3.47;47.33
13954;BME280;7049;49.444;8.522;2022-07-29T03:47:35;76527.25;;;-3.47;47.70
13954;BME280;7049;49.444;8.522;2022-07-29T03:52:40;76539.81;;;-3.47;48.13
13954;BME280;7049;49.444;8.522;2022-07-29T03:57:42;76539.81;;;-3.47;48.13
13954;BME280;7049;49.444;8.522;2022-07-29T04:02:47;76558.63;;;-3.47;48.29
13954;BME280;7049;49.444;8.522;2022-07-29T04:07:49;76564.91;;;-3.47;48.62
13954;BME280;7049;49.444;8.522;2022-07-29T04:12:50;76573.28;;;-3.47;48.39
13954;BME280;7049;49.444;8.522;2022-07-29T04:17:54;76579.56;;;-3.47;48.85
13954;BME280;7049;49.444;8.522;2022-07-29T04:22:55;76583.72;;;-3.47;49.05
13954;BME280;7049;49.444;8.522;2022-07-29T04:27:57;76592.09;;;-3.47;48.95
13954;BME280;7049;49.444;8.522;2022-07-29T04:33:04;76596.28;;;-3.47;49.14
13954;BME280;7049;49.444;8.522;2022-07-29T04:38:06;76600.47;;;-3.47;49.47
13954;BME280;7049;49.444;8.522;2022-07-29T04:43:07;76602.56;;;-3.47;49.84
13954;BME280;7049;49.444;8.522;2022-07-29T04:48:10;76602.56;;;-3.47;49.92
13954;BME280;7049;49.444;8.522;2022-07-29T04:53:12;76596.28;;;-3.47;49.95
13954;BME280;7049;49.444;8.522;2022-07-29T04:58:13;76596.28;;;-3.47;50.59
13954;BME280;7049;49.444;8.522;2022-07-29T05:03:16;76592.09;;;-3.47;51.49
13954;BME280;7049;49.444;8.522;2022-07-29T05:08:17;76587.91;;;-3.47;51.65
13954;BME280;7049;49.444;8.522;2022-07-29T05:13:19;76587.91;;;-3.47;51.68
13954;BME280;7049;49.444;8.522;2022-07-29T05:18:22;76583.72;;;-3.47;52.32
13954;BME280;7049;49.444;8.522;2022-07-29T05:23:23;76573.28;;;-3.47;52.36
13954;BME280;7049;49.444;8.522;2022-07-29T05:28:25;76560.72;;;-3.47;52.98
13954;BME280;7049;49.444;8.522;2022-07-29T05:33:27;76554.44;;;-3.47;53.03
13954;BME280;7049;49.444;8.522;2022-07-29T05:38:29;76541.91;;;-3.47;53.21
13954;BME280;7049;49.444;8.522;2022-07-29T05:43:30;76527.25;;;-3.47;51.90
13954;BME280;7049;49.444;8.522;2022-07-29T05:48:33;76510.53;;;-3.47;52.57
13954;BME280;7049;49.444;8.522;2022-07-29T05:53:35;76504.25;;;-3.47;52.98
13954;BME280;7049;49.444;8.522;2022-07-29T05:58:37;76487.53;;;-3.47;53.24
13954;BME280;7049;49.444;8.522;2022-07-29T06:03:40;76474.97;;;-3.47;52.60
13954;BME280;7049;49.444;8.522;2022-07-29T06:08:41;76454.06;;;-3.47;51.19
13954;BME280;7049;49.444;8.522;2022-07-29T06:13:43;76426.84;;;-3.47;50.36
13954;BME280;7049;49.444;8.522;2022-07-29T06:18:46;76401.75;;;-3.47;49.11
13954;BME280;7049;49.444;8.522;2022-07-29T06:23:47;76382.94;;;-3.47;48.52
13954;BME280;7049;49.444;8.522;2022-07-29T06:28:49;76364.13;;;-3.47;47.81
13954;BME280;7049;49.444;8.522;2022-07-29T06:33:52;76347.38;;;-3.47;48.08
13954;BME280;7049;49.444;8.522;2022-07-29T06:38:53;76303.47;;;-3.47;48.24
13954;BME280;7049;49.444;8.522;2022-07-29T06:43:55;76299.28;;;-3.47;46.40
13954;BME280;7049;49.444;8.522;2022-07-29T06:48:57;76282.53;;;-3.47;47.25
13954;BME280;7049;49.444;8.522;2022-07-29T06:54:01;76257.44;;;-3.47;46.63
13954;BME280;7049;49.444;8.522;2022-07-29T06:59:06;76238.63;;;-3.47;45.89
13954;BME280;7049;49.444;8.522;2022-07-29T07:04:10;76232.34;;;-3.47;46.78
13954;BME280;7049;49.444;8.522;2022-07-29T07:09:11;76232.34;;;-3.47;46.79
13954;BME280;7049;49.444;8.522;2022-07-29T07:14:13;76209.34;;;-3.47;47.01
13954;BME280;7049;49.444;8.522;2022-07-29T07:19:15;76180.06;;;-3.47;46.26
13954;BME280;7049;49.444;8.522;2022-07-29T07:24:19;76161.22;;;-3.47;45.75
13954;BME280;7049;49.444;8.522;2022-07-29T07:29:20;76142.41;;;-3.47;45.51
13954;BME280;7049;49.444;8.522;2022-07-29T07:34:23;76127.78;;;-3.47;45.71
13954;BME280;7049;49.444;8.522;2022-07-29T07:39:25;76094.31;;;-3.47;45.82
13954;BME280;7049;49.444;8.522;2022-07-29T07:44:27;76062.94;;;-3.47;45.23
13954;BME280;7049;49.444;8.522;2022-07-29T07:49:29;76060.84;;;-3.47;44.66
13954;BME280;7049;49.444;8.522;2022-07-29T07:54:31;76060.84;;;-3.47;44.75
13954;BME280;7049;49.444;8.522;2022-07-29T07:59:32;76044.13;;;-3.47;44.37
13954;BME280;7049;49.444;8.522;2022-07-29T08:04:36;76044.13;;;-3.47;44.42
13954;BME280;7049;49.444;8.522;2022-07-29T08:09:40;76044.13;;;-3.47;44.39
13954;BME280;7049;49.444;8.522;2022-07-29T08:14:42;76039.94;;;-3.47;44.34
13954;BME280;7049;49.444;8.522;2022-07-29T08:19:45;76027.38;;;-3.47;44.42
13954;BME280;7049;49.444;8.522;2022-07-29T08:24:48;76031.56;;;-3.47;44.94
13954;BME280;7049;49.444;8.522;2022-07-29T08:29:54;76010.66;;;-3.47;45.15
13954;BME280;7049;49.444;8.522;2022-07-29T08:34:57;75983.47;;;-3.47;44.46
13954;BME280;7049;49.444;8.522;2022-07-29T08:39:58;75947.91;;;-3.47;43.33
13954;BME280;7049;49.444;8.522;2022-07-29T08:45:00;75920.72;;;-3.47;43.51
13954;BME280;7049;49.444;8.522;2022-07-29T08:50:03;75868.44;;;-3.47;42.13
13954;BME280;7049;49.444;8.522;2022-07-29T08:55:07;75845.44;;;-3.47;41.78
13954;BME280;7049;49.444;8.522;2022-07-29T09:00:09;75803.63;;;-3.47;41.02
13954;BME280;7049;49.444;8.522;2022-07-29T09:05:12;75811.97;;;-3.47;40.84
13954;BME280;7049;49.444;8.522;2022-07-29T09:10:14;75816.16;;;-3.47;40.69
13954;BME280;7049;49.444;8.522;2022-07-29T09:15:15;75822.44;;;-3.47;40.36
13954;BME280;7049;49.444;8.522;2022-07-29T09:20:20;75795.25;;;-3.47;39.76
13954;BME280;7049;49.444;8.522;2022-07-29T09:25:33;75770.16;;;-3.47;40.56
13954;BME280;7049;49.444;8.522;2022-07-29T09:30:35;75724.16;;;-3.47;40.07
13954;BME280;7049;49.444;8.522;2022-07-29T09:35:37;75686.50;;;-3.47;37.78
13954;BME280;7049;49.444;8.522;2022-07-29T09:40:39;75678.13;;;-3.47;37.45
13954;BME280;7049;49.444;8.522;2022-07-29T09:45:41;75665.59;;;-3.47;37.42
13954;BME280;7049;49.444;8.522;2022-07-29T09:50:45;75609.13;;;-3.47;36.13
13954;BME280;7049;49.444;8.522;2022-07-29T09:55:48;75575.69;;;-3.47;35.67
13954;BME280;7049;49.444;8.522;2022-07-29T10:00:52;75533.84;;;-3.47;34.61
13954;BME280;7049;49.444;8.522;2022-07-29T10:06:08;75485.75;;;-3.47;34.53
13954;BME280;7049;49.444;8.522;2022-07-29T10:11:11;75439.75;;;-3.47;34.25
13954;BME280;7049;49.444;8.522;2022-07-29T10:16:15;75397.94;;;-3.47;32.87
13954;BME280;7049;49.444;8.522;2022-07-29T10:21:17;75341.47;;;-3.47;33.90
13954;BME280;7049;49.444;8.522;2022-07-29T10:26:19;75310.13;;;-3.47;32.21
13954;BME280;7049;49.444;8.522;2022-07-29T10:31:26;75257.84;;;-3.47;33.12
13954;BME280;7049;49.444;8.522;2022-07-29T10:36:42;75199.28;;;-3.47;31.97
13954;BME280;7049;49.444;8.522;2022-07-29T10:42:11;75180.47;;;-3.47;31.33
13954;BME280;7049;49.444;8.522;2022-07-29T10:47:22;75180.47;;;-3.47;31.60
13954;BME280;7049;49.444;8.522;2022-07-29T10:52:55;75195.13;;;-3.47;31.54
13954;BME280;7049;49.444;8.522;2022-07-29T10:58:11;75174.22;;;-3.47;31.49
13954;BME280;7049;49.444;8.522;2022-07-29T11:03:43;75182.56;;;-3.47;31.00
13954;BME280;7049;49.444;8.522;2022-07-29T11:09:14;75188.84;;;-3.47;31.01
13954;BME280;7049;49.444;8.522;2022-07-29T11:14:16;75199.28;;;-3.47;31.47
13954;BME280;7049;49.444;8.522;2022-07-29T11:19:20;75228.56;;;-3.47;30.80
13954;BME280;7049;49.444;8.522;2022-07-29T11:24:24;75226.47;;;-3.47;31.60
13954;BME280;7049;49.444;8.522;2022-07-29T11:29:28;75220.22;;;-3.47;31.37
13954;BME280;7049;49.444;8.522;2022-07-29T11:34:31;75228.56;;;-3.47;30.60
13954;BME280;7049;49.444;8.522;2022-07-29T11:39:35;75257.84;;;-3.47;31.15
13954;BME280;7049;49.444;8.522;2022-07-29T11:44:54;75268.28;;;-3.47;31.82
13954;BME280;7049;49.444;8.522;2022-07-29T11:49:56;75287.13;;;-3.47;31.80
13954;BME280;7049;49.444;8.522;2022-07-29T11:55:01;75278.75;;;-3.47;31.13
13954;BME280;7049;49.444;8.522;2022-07-29T12:00:06;75236.94;;;-3.47;31.43
13954;BME280;7049;49.444;8.522;2022-07-29T12:05:09;75182.56;;;-3.47;31.84
13954;BME280;7049;49.444;8.522;2022-07-29T12:10:13;75161.66;;;-3.47;30.18
13954;BME280;7049;49.444;8.522;2022-07-29T12:15:16;75126.13;;;-3.47;30.00
13954;BME280;7049;49.444;8.522;2022-07-29T12:20:28;75115.66;;;-3.47;29.88
13954;BME280;7049;49.444;8.522;2022-07-29T12:25:33;75094.75;;;-3.47;29.98
13954;BME280;7049;49.444;8.522;2022-07-29T12:30:37;75069.66;;;-3.47;29.83
13954;BME280;7049;49.444;8.522;2022-07-29T12:35:40;75052.94;;;-3.47;28.30
13954;BME280;7049;49.444;8.522;2022-07-29T12:40:45;75057.13;;;-3.47;28.77
13954;BME280;7049;49.444;8.522;2022-07-29T12:45:48;75029.94;;;-3.47;29.28
13954;BME280;7049;49.444;8.522;2022-07-29T12:50:55;74996.50;;;-3.47;29.28
13954;BME280;7049;49.444;8.522;2022-07-29T12:55:58;74994.41;;;-3.47;28.62
13954;BME280;7049;49.444;8.522;2022-07-29T13:01:07;74996.50;;;-3.47;27.59
13954;BME280;7049;49.444;8.522;2022-07-29T13:06:27;74981.84;;;-3.47;27.70
13954;BME280;7049;49.444;8.522;2022-07-29T13:11:30;74960.94;;;-3.47;27.65
13954;BME280;7049;49.444;8.522;2022-07-29T13:16:32;74940.03;;;-3.47;26.48
13954;BME280;7049;49.444;8.522;2022-07-29T13:21:34;74935.84;;;-3.47;26.38
13954;BME280;7049;49.444;8.522;2022-07-29T13:26:40;74952.59;;;-3.47;26.56
13954;BME280;7049;49.444;8.522;2022-07-29T13:31:42;74960.94;;;-3.47;26.42
13954;BME280;7049;49.444;8.522;2022-07-29T13:36:43;75002.75;;;-3.47;26.63
13954;BME280;7049;49.444;8.522;2022-07-29T13:41:46;75036.22;;;-3.47;27.18
13954;BME280;7049;49.444;8.522;2022-07-29T13:46:47;75065.47;;;-3.47;26.57
13954;BME280;7049;49.444;8.522;2022-07-29T13:51:49;75061.31;;;-3.47;26.46
13954;BME280;7049;49.444;8.522;2022-07-29T13:56:52;75067.56;;;-3.47;26.63
13954;BME280;7049;49.444;8.522;2022-07-29T14:01:53;75075.94;;;-3.47;26.29
13954;BME280;7049;49.444;8.522;2022-07-29T14:06:55;75113.56;;;-3.47;26.08
13954;BME280;7049;49.444;8.522;2022-07-29T14:12:30;75132.38;;;-3.47;26.30
13954;BME280;7049;49.444;8.522;2022-07-29T14:17:46;75124.03;;;-3.47;27.31
13954;BME280;7049;49.444;8.522;2022-07-29T14:22:47;75105.22;;;-3.47;26.36
13954;BME280;7049;49.444;8.522;2022-07-29T14:27:50;75098.94;;;-3.47;26.62
13954;BME280;7049;49.444;8.522;2022-07-29T14:32:53;75094.75;;;-3.47;26.50
13954;BME280;7049;49.444;8.522;2022-07-29T14:37:54;75109.38;;;-3.47;26.96
13954;BME280;7049;49.444;8.522;2022-07-29T14:42:57;75092.66;;;-3.47;27.00
13954;BME280;7049;49.444;8.522;2022-07-29T14:47:59;75078.03;;;-3.47;27.03
13954;BME280;7049;49.444;8.522;2022-07-29T14:53:01;75071.75;;;-3.47;26.00
13954;BME280;7049;49.444;8.522;2022-07-29T14:58:03;75078.03;;;-3.47;26.25
13954;BME280;7049;49.444;8.522;2022-07-29T15:03:05;75090.56;;;-3.47;26.36
13954;BME280;7049;49.444;8.522;2022-07-29T15:08:09;75094.75;;;-3.47;26.74
13954;BME280;7049;49.444;8.522;2022-07-29T15:13:12;75130.31;;;-3.47;26.66
13954;BME280;7049;49.444;8.522;2022-07-29T15:18:13;75161.66;;;-3.47;26.93
13954;BME280;7049;49.444;8.522;2022-07-29T15:23:15;75161.66;;;-3.47;27.16
13954;BME280;7049;49.444;8.522;2022-07-29T15:28:18;75147.03;;;-3.47;26.77
13954;BME280;7049;49.444;8.522;2022-07-29T15:33:19;75147.03;;;-3.47;26.42
13954;BME280;7049;49.444;8.522;2022-07-29T15:38:21;75124.03;;;-3.47;26.50
13954;BME280;7049;49.444;8.522;2022-07-29T15:43:23;75149.13;;;-3.47;26.33
13954;BME280;7049;49.444;8.522;2022-07-29T15:48:25;75167.94;;;-3.47;26.17
13954;BME280;7049;49.444;8.522;2022-07-29T15:53:26;75178.38;;;-3.47;26.43
13954;BME280;7049;49.444;8.522;2022-07-29T15:58:30;75159.56;;;-3.47;26.42
13954;BME280;7049;49.444;8.522;2022-07-29T16:03:31;75176.28;;;-3.47;26.32
13954;BME280;7049;49.444;8.522;2022-07-29T16:08:33;75184.66;;;-3.47;26.16
13954;BME280;7049;49.444;8.522;2022-07-29T16:13:36;75195.13;;;-3.47;26.28
13954;BME280;7049;49.444;8.522;2022-07-29T16:18:37;75180.47;;;-3.47;26.12
13954;BME280;7049;49.444;8.522;2022-07-29T16:23:39;75151.22;;;-3.47;25.76
13954;BME280;7049;49.444;8.522;2022-07-29T16:28:42;75130.31;;;-3.47;25.75
13954;BME280;7049;49.444;8.522;2022-07-29T16:33:43;75098.94;;;-3.47;25.59
13954;BME280;7049;49.444;8.522;2022-07-29T16:38:45;75090.56;;;-3.47;25.23
13954;BME280;7049;49.444;8.522;2022-07-29T16:43:48;75098.94;;;-3.47;25.47
13954;BME280;7049;49.444;8.522;2022-07-29T16:48:50;75115.66;;;-3.47;25.29
13954;BME280;7049;49.444;8.522;2022-07-29T16:53:51;75170.03;;;-3.47;25.31
13954;BME280;7049;49.444;8.522;2022-07-29T16:58:56;75182.56;;;-3.47;25.79
13954;BME280;7049;49.444;8.522;2022-07-29T17:03:57;75180.47;;;-3.47;25.84
13954;BME280;7049;49.444;8.522;2022-07-29T17:09:09;75182.56;;;-3.47;24.98
13954;BME280;7049;49.444;8.522;2022-07-29T17:14:12;75199.28;;;-3.47;25.61
13954;BME280;7049;49.444;8.522;2022-07-29T17:19:14;75209.75;;;-3.47;25.79
13954;BME280;7049;49.444;8.522;2022-07-29T17:24:15;75232.75;;;-3.47;25.18
13954;BME280;7049;49.444;8.522;2022-07-29T17:29:18;75253.66;;;-3.47;25.06
13954;BME280;7049;49.444;8.522;2022-07-29T17:34:19;75270.38;;;-3.47;24.56
13954;BME280;7049;49.444;8.522;2022-07-29T17:39:21;75291.28;;;-3.47;24.21
13954;BME280;7049;49.444;8.522;2022-07-29T17:44:24;75291.28;;;-3.47;26.67
13954;BME280;7049;49.444;8.522;2022-07-29T17:49:26;75295.47;;;-3.47;28.35
13954;BME280;7049;49.444;8.522;2022-07-29T17:54:27;75343.56;;;-3.47;28.72
13954;BME280;7049;49.444;8.522;2022-07-29T17:59:30;75381.22;;;-3.47;29.32
13954;BME280;7049;49.444;8.522;2022-07-29T18:04:31;75414.66;;;-3.47;29.62
13954;BME280;7049;49.444;8.522;2022-07-29T18:09:33;75435.56;;;-3.47;30.14
13954;BME280;7049;49.444;8.522;2022-07-29T18:14:36;75460.66;;;-3.47;30.53
13954;BME280;7049;49.444;8.522;2022-07-29T18:19:37;75487.84;;;-3.47;30.84
13954;BME280;7049;49.444;8.522;2022-07-29T18:24:39;75512.94;;;-3.47;31.69
13954;BME280;7049;49.444;8.522;2022-07-29T18:29:42;75533.84;;;-3.47;32.07
13954;BME280;7049;49.444;8.522;2022-07-29T18:34:43;75554.75;;;-3.47;32.05
13954;BME280;7049;49.444;8.522;2022-07-29T18:39:45;75579.84;;;-3.47;33.15
13954;BME280;7049;49.444;8.522;2022-07-29T18:44:48;75609.13;;;-3.47;34.53
13954;BME280;7049;49.444;8.522;2022-07-29T18:49:49;75642.59;;;-3.47;35.14
13954;BME280;7049;49.444;8.522;2022-07-29T18:54:51;75676.06;;;-3.47;36.07
13954;BME280;7049;49.444;8.522;2022-07-29T18:59:54;75696.97;;;-3.47;36.61
13954;BME280;7049;49.444;8.522;2022-07-29T19:04:55;75715.78;;;-3.47;37.52
13954;BME280;7049;49.444;8.522;2022-07-29T19:09:57;75747.16;;;-3.47;38.26
13954;BME280;7049;49.444;8.522;2022-07-29T19:15:00;75776.44;;;-3.47;38.98
13954;BME280;7049;49.444;8.522;2022-07-29T19:20:02;75795.25;;;-3.47;39.00
13954;BME280;7049;49.444;8.522;2022-07-29T19:25:05;75820.34;;;-3.47;40.03
13954;BME280;7049;49.444;8.522;2022-07-29T19:30:09;75845.44;;;-3.47;40.50
13954;BME280;7049;49.444;8.522;2022-07-29T19:35:10;75870.53;;;-3.47;41.23
13954;BME280;7049;49.444;8.522;2022-07-29T19:40:31;75893.53;;;-3.47;41.83
13954;BME280;7049;49.444;8.522;2022-07-29T19:45:34;75916.53;;;-3.47;42.02
13954;BME280;7049;49.444;8.522;2022-07-29T19:50:35;75947.91;;;-3.47;41.74
13954;BME280;7049;49.444;8.522;2022-07-29T19:55:37;75973.00;;;-3.47;42.02
13954;BME280;7049;49.444;8.522;2022-07-29T20:00:40;75987.66;;;-3.47;42.74
13954;BME280;7049;49.444;8.522;2022-07-29T20:05:42;76006.47;;;-3.47;43.07
13954;BME280;7049;49.444;8.522;2022-07-29T20:10:43;76027.38;;;-3.47;43.04
13954;BME280;7049;49.444;8.522;2022-07-29T20:15:46;76042.03;;;-3.47;43.84
13954;BME280;7049;49.444;8.522;2022-07-29T20:20:48;76052.47;;;-3.47;44.14
13954;BME280;7049;49.444;8.522;2022-07-29T20:26:00;76065.03;;;-3.47;44.22
13954;BME280;7049;49.444;8.522;2022-07-29T20:31:03;76073.41;;;-3.47;44.58
13954;BME280;7049;49.444;8.522;2022-07-29T20:36:05;76085.94;;;-3.47;44.74
13954;BME280;7049;49.444;8.522;2022-07-29T20:41:06;76073.41;;;-3.47;44.81
13954;BME280;7049;49.444;8.522;2022-07-29T20:46:09;76100.59;;;-3.47;49.98
13954;BME280;7049;49.444;8.522;2022-07-29T20:51:11;76129.88;;;-3.47;53.98
13954;BME280;7049;49.444;8.522;2022-07-29T20:56:12;76159.16;;;-3.47;56.74
13954;BME280;7049;49.444;8.522;2022-07-29T21:01:15;76190.50;;;-3.47;59.48
13954;BME280;7049;49.444;8.522;2022-07-29T21:06:17;76209.34;;;-3.47;61.51
13954;BME280;7049;49.444;8.522;2022-07-29T21:11:18;76228.16;;;-3.47;62.78
13954;BME280;7049;49.444;8.522;2022-07-29T21:16:21;76240.72;;;-3.47;63.83
13954;BME280;7049;49.444;8.522;2022-07-29T21:21:24;76261.63;;;-3.47;64.91
13954;BME280;7049;49.444;8.522;2022-07-29T21:26:26;76274.19;;;-3.47;65.71
13954;BME280;7049;49.444;8.522;2022-07-29T21:31:29;76297.19;;;-3.47;66.00
13954;BME280;7049;49.444;8.522;2022-07-29T21:36:31;76316.00;;;-3.47;65.26
13954;BME280;7049;49.444;8.522;2022-07-29T21:41:34;76324.38;;;-3.47;65.01
13954;BME280;7049;49.444;8.522;2022-07-29T21:46:36;76336.91;;;-3.47;65.18
13954;BME280;7049;49.444;8.522;2022-07-29T21:51:38;76357.84;;;-3.47;65.44
13954;BME280;7049;49.444;8.522;2022-07-29T21:56:39;76376.66;;;-3.47;66.42
13954;BME280;7049;49.444;8.522;2022-07-29T22:01:42;76387.13;;;-3.47;67.14
13954;BME280;7049;49.444;8.522;2022-07-29T22:06:44;76403.84;;;-3.47;67.96
13954;BME280;7049;49.444;8.522;2022-07-29T22:11:45;76412.22;;;-3.47;68.14
13954;BME280;7049;49.444;8.522;2022-07-29T22:16:48;76422.69;;;-3.47;68.55
13954;BME280;7049;49.444;8.522;2022-07-29T22:21:50;76433.13;;;-3.47;68.60
13954;BME280;7049;49.444;8.522;2022-07-29T22:26:51;76449.88;;;-3.47;68.18
13954;BME280;7049;49.444;8.522;2022-07-29T22:31:54;76458.25;;;-3.47;67.41
13954;BME280;7049;49.444;8.522;2022-07-29T22:36:56;76468.69;;;-3.47;67.11
13954;BME280;7049;49.444;8.522;2022-07-29T22:41:57;76481.25;;;-3.47;67.09
13954;BME280;7049;49.444;8.522;2022-07-29T22:47:00;76491.69;;;-3.47;67.34
13954;BME280;7049;49.444;8.522;2022-07-29T22:52:02;76502.16;;;-3.47;67.04
13954;BME280;7049;49.444;8.522;2022-07-29T22:57:03;76516.81;;;-3.47;67.76
13954;BME280;7049;49.444;8.522;2022-07-29T23:02:06;76520.97;;;-3.47;68.40
13954;BME280;7049;49.444;8.522;2022-07-29T23:07:07;76533.53;;;-3.47;68.78
13954;BME280;7049;49.444;8.522;2022-07-29T23:12:09;76541.91;;;-3.47;68.31
13954;BME280;7049;49.444;8.522;2022-07-29T23:17:12;76550.28;;;-3.47;67.86
13954;BME280;7049;49.444;8.522;2022-07-29T23:22:13;76560.72;;;-3.47;67.73
13954;BME280;7049;49.444;8.522;2022-07-29T23:27:15;76569.09;;;-3.47;68.15
13954;BME280;7049;49.444;8.522;2022-07-29T23:32:17;76583.72;;;-3.47;68.84
13954;BME280;7049;49.444;8.522;2022-07-29T23:37:19;76587.91;;;-3.47;69.34
13954;BME280;7049;49.444;8.522;2022-07-29T23:42:20;76587.91;;;-3.47;69.91
13954;BME280;7049;49.444;8.522;2022-07-29T23:47:23;76596.28;;;-3.47;70.55
13954;BME280;7049;49.444;8.522;2022-07-29T23:52:25;76600.47;;;-3.47;70.48
13954;BME280;7049;49.444;8.522;2022-07-29T23:57:26;76619.28;;;-3.47;70.00
